Time;durP1;ratioP1;P1;durP2;ratioP2;P2;SDS_P1;SDS_P2;PMS_P1;PMS_P2;Temp;Humidity;BMP_temperature;BMP_pressure;BME280_temperature;BME280_humidity;BME280_pressure;Samples;Min_cycle;Max_cycle;Signal;HPM_P1;HPM_P2
2022/11/30 03:30:47;;;;;;;6.25;3.80;;;;;;;;;;1779521;79;29585;-64
2022/11/30 03:33:13;;;;;;;6.60;3.55;;;;;;;;;;1725353;83;21548;-63
2022/11/30 03:35:39;;;;;;;7.40;3.85;;;;;;;;;;1718630;83;21011;-65
2022/11/30 03:38:06;;;;;;;5.15;3.33;;;;;;;;;;1750131;81;21030;-64
2022/11/30 03:40:32;;;;;;;5.97;3.87;;;;;;;;;;1721204;83;21068;-64
2022/11/30 03:42:58;;;;;;;7.45;4.00;;;;;;;;;;1754269;82;21036;-65
2022/11/30 03:45:24;;;;;;;5.28;3.33;;;;;;;;;;1753276;82;21060;-65
2022/11/30 03:47:50;;;;;;;5.00;3.02;;;;;;;;;;1752951;82;21091;-63
2022/11/30 03:50:17;;;;;;;6.00;3.30;;;;;;;;;;1742271;81;21056;-64
2022/11/30 03:52:43;;;;;;;6.85;3.12;;;;;;;;;;1738026;81;21006;-64
2022/11/30 03:55:09;;;;;;;4.90;3.08;;;;;;;;;;1748399;81;21055;-65
2022/11/30 03:57:35;;;;;;;6.92;3.37;;;;;;;;;;1762391;80;21009;-66
2022/11/30 04:00:01;;;;;;;5.80;3.52;;;;;;;;;;1740951;82;21652;-64
2022/11/30 04:02:29;;;;;;;6.03;3.22;;;;;;;;;;1740342;82;21062;-65
2022/11/30 04:04:55;;;;;;;11.15;3.60;;;;;;;;;;1741638;82;21112;-64
2022/11/30 04:07:21;;;;;;;5.33;2.90;;;;;;;;;;1741503;82;21609;-63
2022/11/30 04:09:48;;;;;;;4.50;3.00;;;;;;;;;;1741538;82;21052;-64
2022/11/30 04:12:14;;;;;;;7.42;3.22;;;;;;;;;;1741759;82;21037;-64
2022/11/30 04:14:40;;;;;;;6.47;3.62;;;;;;;;;;1741794;82;21097;-65
2022/11/30 04:17:06;;;;;;;6.10;3.10;;;;;;;;;;1746024;80;21072;-65
2022/11/30 04:19:32;;;;;;;6.08;3.70;;;;;;;;;;1748506;80;21538;-65
2022/11/30 04:21:58;;;;;;;6.30;3.35;;;;;;;;;;1736400;80;22485;-65
2022/11/30 04:24:24;;;;;;;4.33;2.90;;;;;;;;;;1724346;82;21044;-65
2022/11/30 04:26:51;;;;;;;8.00;3.92;;;;;;;;;;1723375;83;21048;-65
2022/11/30 04:29:17;;;;;;;7.65;3.50;;;;;;;;;;1730552;81;21054;-65
2022/11/30 04:31:43;;;;;;;5.78;3.22;;;;;;;;;;1720754;83;21021;-65
2022/11/30 04:34:09;;;;;;;7.58;3.35;;;;;;;;;;1697048;84;21084;-65
2022/11/30 04:36:36;;;;;;;6.08;3.70;;;;;;;;;;1697170;84;21111;-64
2022/11/30 04:39:02;;;;;;;6.25;3.50;;;;;;;;;;1697059;84;21095;-64
2022/11/30 04:41:29;;;;;;;6.00;3.47;;;;;;;;;;1695216;85;21035;-65
2022/11/30 04:43:55;;;;;;;7.17;3.62;;;;;;;;;;1686135;85;21081;-65
2022/11/30 04:46:21;;;;;;;6.22;3.12;;;;;;;;;;1697607;84;21039;-66
2022/11/30 04:48:47;;;;;;;5.47;3.30;;;;;;;;;;1697706;84;21083;-64
2022/11/30 04:51:13;;;;;;;7.97;4.17;;;;;;;;;;1695071;85;21088;-66
2022/11/30 04:53:39;;;;;;;5.75;3.45;;;;;;;;;;1689914;84;21063;-65
2022/11/30 04:56:09;;;;;;;5.40;2.92;;;;;;;;;;1698260;84;21064;-65
2022/11/30 04:58:35;;;;;;;7.28;3.17;;;;;;;;;;1676043;84;21091;-65
2022/11/30 05:01:01;;;;;;;5.78;3.33;;;;;;;;;;1676202;84;21081;-64
2022/11/30 05:03:27;;;;;;;7.85;3.87;;;;;;;;;;1701432;83;21117;-64
2022/11/30 05:05:53;;;;;;;4.12;3.25;;;;;;;;;;1703198;83;22082;-64
2022/11/30 05:08:20;;;;;;;9.20;4.03;;;;;;;;;;1687062;84;21118;-64
2022/11/30 05:10:48;;;;;;;10.00;4.05;;;;;;;;;;1670841;86;21606;-64
2022/11/30 05:13:14;;;;;;;6.28;3.40;;;;;;;;;;1670693;86;21095;-64
2022/11/30 05:15:40;;;;;;;5.05;3.17;;;;;;;;;;1670789;86;21094;-64
2022/11/30 05:18:06;;;;;;;5.67;3.50;;;;;;;;;;1686668;84;21545;-64
2022/11/30 05:20:32;;;;;;;5.83;3.55;;;;;;;;;;1701553;84;21151;-65
2022/11/30 05:22:58;;;;;;;10.28;3.70;;;;;;;;;;1704112;84;21056;-65
2022/11/30 05:25:24;;;;;;;8.83;3.50;;;;;;;;;;1704324;84;21507;-65
2022/11/30 05:27:50;;;;;;;4.35;2.85;;;;;;;;;;1703864;84;21067;-65
2022/11/30 05:30:17;;;;;;;6.30;3.42;;;;;;;;;;1709454;82;21059;-65
2022/11/30 05:32:43;;;;;;;7.53;4.03;;;;;;;;;;1713607;84;21118;-65
2022/11/30 05:35:09;;;;;;;6.40;3.37;;;;;;;;;;1722879;83;21128;-65
2022/11/30 05:37:36;;;;;;;8.43;3.67;;;;;;;;;;1730925;83;21068;-65
2022/11/30 05:40:02;;;;;;;5.50;3.45;;;;;;;;;;1731345;83;21073;-65
2022/11/30 05:42:28;;;;;;;11.65;4.60;;;;;;;;;;1730376;83;21135;-65
2022/11/30 05:44:54;;;;;;;7.55;3.92;;;;;;;;;;1727624;83;21000;-66
2022/11/30 05:47:20;;;;;;;8.30;3.72;;;;;;;;;;1727569;83;21507;-65
2022/11/30 05:49:46;;;;;;;5.08;3.55;;;;;;;;;;1722459;81;21036;-65
2022/11/30 05:52:12;;;;;;;5.42;3.15;;;;;;;;;;1712265;83;21033;-65
2022/11/30 05:54:38;;;;;;;6.67;3.40;;;;;;;;;;1706192;83;20976;-65
2022/11/30 05:57:04;;;;;;;6.33;3.83;;;;;;;;;;1719327;82;21021;-64
2022/11/30 05:59:31;;;;;;;6.25;3.47;;;;;;;;;;1726822;83;21136;-64
2022/11/30 06:02:06;;;;;;;7.17;4.28;;;;;;;;;;1726603;83;21149;-64
2022/11/30 06:04:32;;;;;;;11.85;4.30;;;;;;;;;;1727026;82;21603;-65
2022/11/30 06:06:59;;;;;;;9.63;4.58;;;;;;;;;;1724540;83;21049;-65
2022/11/30 06:09:25;;;;;;;6.17;3.62;;;;;;;;;;1720302;82;21020;-67
2022/11/30 06:11:51;;;;;;;6.50;3.98;;;;;;;;;;1733970;82;22205;-65
2022/11/30 06:14:18;;;;;;;7.90;4.10;;;;;;;;;;1718529;83;21068;-64
2022/11/30 06:16:44;;;;;;;9.25;4.62;;;;;;;;;;1712816;82;21035;-63
2022/11/30 06:19:10;;;;;;;8.05;4.03;;;;;;;;;;1680336;83;22192;-63
2022/11/30 06:21:38;;;;;;;7.65;4.28;;;;;;;;;;1713036;82;21040;-63
2022/11/30 06:24:04;;;;;;;7.87;4.22;;;;;;;;;;1718764;83;21062;-63
2022/11/30 06:26:31;;;;;;;7.33;3.98;;;;;;;;;;1723154;83;21037;-63
2022/11/30 06:28:57;;;;;;;8.60;4.53;;;;;;;;;;1723141;82;21080;-63
2022/11/30 06:31:23;;;;;;;10.08;5.20;;;;;;;;;;1694310;83;21025;-64
2022/11/30 06:33:50;;;;;;;8.08;3.67;;;;;;;;;;1715527;82;21529;-63
2022/11/30 06:36:20;;;;;;;7.08;4.53;;;;;;;;;;1718771;82;21040;-63
2022/11/30 06:38:46;;;;;;;7.37;4.50;;;;;;;;;;1720322;82;21050;-63
2022/11/30 06:41:12;;;;;;;7.85;4.72;;;;;;;;;;1713650;82;21488;-63
2022/11/30 06:43:38;;;;;;;8.08;4.40;;;;;;;;;;1717081;83;21032;-63
2022/11/30 06:46:05;;;;;;;8.28;4.55;;;;;;;;;;1712518;82;21519;-64
2022/11/30 06:48:32;;;;;;;7.58;4.15;;;;;;;;;;1719579;82;21071;-63
2022/11/30 08:19:48;;;;;;;11.18;5.62;;;;;;;;;;1860146;77;28547;-61
2022/11/30 08:22:15;;;;;;;9.88;5.28;;;;;;;;;;1828682;78;21064;-61
2022/11/30 08:24:42;;;;;;;7.83;5.05;;;;;;;;;;1829523;77;21026;-63
2022/11/30 08:27:08;;;;;;;11.55;5.70;;;;;;;;;;1833805;78;21097;-61
2022/11/30 08:29:34;;;;;;;11.40;6.42;;;;;;;;;;1834368;77;21011;-61
2022/11/30 08:32:01;;;;;;;13.08;8.53;;;;;;;;;;1831916;77;20988;-62
2022/11/30 08:34:28;;;;;;;10.35;5.30;;;;;;;;;;1836345;77;21090;-62
2022/11/30 08:36:55;;;;;;;10.13;5.35;;;;;;;;;;1829095;77;21042;-61
2022/11/30 08:39:21;;;;;;;10.78;5.45;;;;;;;;;;1833983;77;21004;-62
2022/11/30 08:41:51;;;;;;;11.93;5.90;;;;;;;;;;1790921;79;21020;-62
2022/11/30 08:44:19;;;;;;;11.90;5.55;;;;;;;;;;1766989;80;21107;-63
2022/11/30 08:46:45;;;;;;;8.83;4.83;;;;;;;;;;1768469;80;21008;-62
2022/11/30 08:49:11;;;;;;;10.65;5.20;;;;;;;;;;1765894;80;21024;-62
2022/11/30 08:51:37;;;;;;;11.00;5.97;;;;;;;;;;1757177;81;21022;-61
2022/11/30 08:54:04;;;;;;;12.82;7.17;;;;;;;;;;1768724;80;21039;-62
2022/11/30 08:56:30;;;;;;;16.77;6.78;;;;;;;;;;1767921;81;21032;-62
2022/11/30 08:58:56;;;;;;;14.93;7.50;;;;;;;;;;1764878;80;21063;-62
2022/11/30 09:01:23;;;;;;;13.20;8.08;;;;;;;;;;1755441;80;21039;-63
2022/11/30 09:03:56;;;;;;;13.58;7.67;;;;;;;;;;1766422;80;21100;-62
2022/11/30 09:06:21;;;;;;;12.50;7.08;;;;;;;;;;1787472;78;21028;-64
2022/11/30 09:08:48;;;;;;;11.80;6.85;;;;;;;;;;1790439;78;21072;-63
2022/11/30 09:11:18;;;;;;;11.55;6.75;;;;;;;;;;1790508;79;21495;-62
2022/11/30 09:13:44;;;;;;;11.15;6.62;;;;;;;;;;1781750;79;21613;-61
2022/11/30 09:16:11;;;;;;;12.03;7.10;;;;;;;;;;1782127;78;21004;-64
2022/11/30 09:18:37;;;;;;;12.95;7.33;;;;;;;;;;1775079;79;21058;-64
2022/11/30 09:21:04;;;;;;;13.55;7.17;;;;;;;;;;1790470;78;21005;-62
2022/11/30 09:23:30;;;;;;;13.58;6.30;;;;;;;;;;1755023;80;21085;-62
2022/11/30 09:25:57;;;;;;;11.28;5.87;;;;;;;;;;1795131;78;21055;-62
2022/11/30 09:28:23;;;;;;;14.15;6.75;;;;;;;;;;1782337;78;21058;-62
2022/11/30 09:30:50;;;;;;;13.55;6.90;;;;;;;;;;1800378;78;21500;-62
2022/11/30 09:33:17;;;;;;;13.25;7.03;;;;;;;;;;1791762;78;21007;-63
2022/11/30 09:35:43;;;;;;;13.05;7.45;;;;;;;;;;1795432;79;21031;-63
2022/11/30 09:38:09;;;;;;;15.25;8.65;;;;;;;;;;1783189;78;21095;-62
2022/11/30 09:40:36;;;;;;;17.92;9.35;;;;;;;;;;1768979;80;21034;-63
2022/11/30 09:43:04;;;;;;;14.38;7.30;;;;;;;;;;1761676;81;21400;-61
2022/11/30 09:45:30;;;;;;;14.83;7.37;;;;;;;;;;1802876;78;20992;-62
2022/11/30 09:48:16;;;;;;;12.15;6.20;;;;;;;;;;1801311;78;21502;-61
2022/11/30 09:50:43;;;;;;;15.18;7.72;;;;;;;;;;1783678;78;21044;-62
2022/11/30 09:53:13;;;;;;;15.88;7.30;;;;;;;;;;1799656;78;21008;-62
2022/11/30 09:55:40;;;;;;;12.00;6.92;;;;;;;;;;1788779;78;20988;-62
2022/11/30 09:58:08;;;;;;;14.20;6.40;;;;;;;;;;1768939;81;21071;-63
2022/11/30 10:00:35;;;;;;;14.35;7.20;;;;;;;;;;1783700;80;21047;-62
2022/11/30 10:03:03;;;;;;;13.55;6.90;;;;;;;;;;1796731;79;21083;-61
2022/11/30 10:05:46;;;;;;;13.60;7.25;;;;;;;;;;1762677;80;22127;-61
2022/11/30 10:08:30;;;;;;;16.10;7.42;;;;;;;;;;1765970;80;21368;-61
2022/11/30 10:11:16;;;;;;;11.43;5.75;;;;;;;;;;1766422;80;21039;-61
2022/11/30 10:13:44;;;;;;;13.43;7.03;;;;;;;;;;1721425;82;21071;-61
2022/11/30 10:16:12;;;;;;;12.82;5.90;;;;;;;;;;1727326;82;21062;-61
2022/11/30 10:18:46;;;;;;;14.00;7.40;;;;;;;;;;1731904;79;21009;-62
2022/11/30 10:21:12;;;;;;;;;;;;;;;;;;1764775;80;21523;-62
2022/11/30 10:23:40;;;;;;;10.65;5.45;;;;;;;;;;1754956;81;20125;-61
2022/11/30 10:26:07;;;;;;;8.83;5.08;;;;;;;;;;1754637;82;21049;-62
2022/11/30 10:28:36;;;;;;;12.98;5.97;;;;;;;;;;1736261;82;21043;-62
2022/11/30 10:31:02;;;;;;;12.43;6.08;;;;;;;;;;1749751;80;21987;-60
2022/11/30 10:33:31;;;;;;;10.65;5.25;;;;;;;;;;1758860;80;21044;-60
2022/11/30 10:36:00;;;;;;;12.33;6.00;;;;;;;;;;1751936;80;20994;-61
2022/11/30 10:38:28;;;;;;;10.60;5.33;;;;;;;;;;1752868;80;21046;-61
2022/11/30 10:43:47;;;;;;;10.72;5.25;;;;;;;;;;1688453;81;79354;-60
2022/11/30 10:46:15;;;;;;;9.38;4.85;;;;;;;;;;1711887;82;21588;-61
2022/11/30 10:48:42;;;;;;;12.37;5.17;;;;;;;;;;1724200;82;21064;-60
2022/11/30 10:51:09;;;;;;;12.10;6.00;;;;;;;;;;1735633;82;21050;-60
2022/11/30 10:53:35;;;;;;;8.80;4.90;;;;;;;;;;1729770;82;21002;-60
2022/11/30 10:56:09;;;;;;;13.30;5.33;;;;;;;;;;1718289;82;21599;-60
2022/11/30 10:58:37;;;;;;;12.55;5.70;;;;;;;;;;1711476;82;21041;-61
2022/11/30 11:01:05;;;;;;;13.95;5.62;;;;;;;;;;1711258;83;21075;-61
2022/11/30 11:03:32;;;;;;;10.20;5.22;;;;;;;;;;1719787;82;21084;-61
2022/11/30 11:06:12;;;;;;;12.82;5.60;;;;;;;;;;1725491;82;21017;-60
2022/11/30 11:08:38;;;;;;;8.83;4.47;;;;;;;;;;1718782;82;21037;-61
2022/11/30 11:11:05;;;;;;;18.37;8.08;;;;;;;;;;1714661;82;21040;-63
2022/11/30 11:13:41;;;;;;;10.78;6.03;;;;;;;;;;1718240;82;21092;-61
2022/11/30 11:16:09;;;;;;;10.28;5.33;;;;;;;;;;1730299;82;21064;-61
2022/11/30 11:18:36;;;;;;;8.93;4.62;;;;;;;;;;1724505;82;21021;-61
2022/11/30 11:21:06;;;;;;;11.50;5.62;;;;;;;;;;1712173;82;21033;-60
2022/11/30 11:23:36;;;;;;;9.35;5.05;;;;;;;;;;1713625;82;21020;-61
2022/11/30 11:26:03;;;;;;;9.05;5.05;;;;;;;;;;1710145;82;21065;-60
2022/11/30 11:28:29;;;;;;;8.70;4.53;;;;;;;;;;1717634;82;21017;-61
2022/11/30 11:30:56;;;;;;;9.18;4.60;;;;;;;;;;1719326;82;21049;-61
2022/11/30 11:33:23;;;;;;;9.75;5.20;;;;;;;;;;1722779;82;21069;-60
2022/11/30 11:35:50;;;;;;;11.00;5.17;;;;;;;;;;1719514;82;21009;-61
2022/11/30 11:38:29;;;;;;;7.87;4.15;;;;;;;;;;1716473;82;21001;-62
2022/11/30 11:40:57;;;;;;;10.43;4.87;;;;;;;;;;1728292;82;21080;-61
2022/11/30 11:43:24;;;;;;;8.30;4.35;;;;;;;;;;1706527;83;21533;-61
2022/11/30 11:45:51;;;;;;;11.30;4.47;;;;;;;;;;1696404;84;21025;-61
2022/11/30 11:48:27;;;;;;;10.45;5.10;;;;;;;;;;1699909;83;21010;-61
2022/11/30 11:50:57;;;;;;;7.60;4.10;;;;;;;;;;1700330;84;21106;-61
2022/11/30 11:53:25;;;;;;;10.72;5.37;;;;;;;;;;1708485;83;21052;-61
2022/11/30 11:55:54;;;;;;;7.75;4.37;;;;;;;;;;1706579;83;21033;-61
2022/11/30 11:58:25;;;;;;;9.75;4.83;;;;;;;;;;1707329;83;21041;-61
2022/11/30 12:00:51;;;;;;;11.63;5.50;;;;;;;;;;1706968;82;21060;-61
2022/11/30 12:03:18;;;;;;;10.43;4.83;;;;;;;;;;1722612;82;21511;-61
2022/11/30 12:05:46;;;;;;;10.45;4.75;;;;;;;;;;1721355;83;21092;-62
2022/11/30 12:08:21;;;;;;;12.82;5.00;;;;;;;;;;1727848;82;21555;-61
2022/11/30 12:10:58;;;;;;;9.70;4.03;;;;;;;;;;1727283;82;21066;-61
2022/11/30 12:13:29;;;;;;;8.40;4.80;;;;;;;;;;1723721;82;21088;-60
2022/11/30 12:16:03;;;;;;;8.18;4.25;;;;;;;;;;1723460;82;21088;-61
2022/11/30 12:18:32;;;;;;;9.08;4.17;;;;;;;;;;1724530;82;21095;-60
2022/11/30 12:20:59;;;;;;;10.20;4.35;;;;;;;;;;1724725;82;21587;-60
2022/11/30 12:23:39;;;;;;;10.03;3.87;;;;;;;;;;1730287;82;21067;-61
2022/11/30 12:26:20;;;;;;;7.90;4.03;;;;;;;;;;1722090;82;21013;-61
2022/11/30 12:28:48;;;;;;;8.08;4.05;;;;;;;;;;1724043;82;21080;-62
2022/11/30 12:31:16;;;;;;;6.72;3.95;;;;;;;;;;1732501;81;21510;-61
2022/11/30 12:33:44;;;;;;;8.80;3.80;;;;;;;;;;1717708;83;20997;-63
2022/11/30 12:36:24;;;;;;;9.63;4.62;;;;;;;;;;1715778;82;21053;-62
2022/11/30 12:38:57;;;;;;;7.80;4.28;;;;;;;;;;1726777;83;21048;-62
2022/11/30 12:41:31;;;;;;;7.85;4.12;;;;;;;;;;1724320;82;21065;-62
2022/11/30 12:44:03;;;;;;;9.95;4.62;;;;;;;;;;1730577;81;21009;-60
2022/11/30 12:46:31;;;;;;;7.80;4.40;;;;;;;;;;1723052;82;21085;-60
2022/11/30 12:49:11;;;;;;;10.00;4.75;;;;;;;;;;1716799;83;21495;-60
2022/11/30 12:51:41;;;;;;;10.23;4.42;;;;;;;;;;1685927;83;21543;-60
2022/11/30 12:54:12;;;;;;;9.13;4.15;;;;;;;;;;1662893;85;21100;-60
2022/11/30 12:56:52;;;;;;;6.10;3.42;;;;;;;;;;1692343;84;21573;-61
2022/11/30 12:59:26;;;;;;;9.25;4.45;;;;;;;;;;1693024;84;21104;-61
2022/11/30 13:02:11;;;;;;;10.50;4.87;;;;;;;;;;1675781;85;20981;-60
2022/11/30 13:04:42;;;;;;;8.33;4.10;;;;;;;;;;1683733;85;21553;-60
2022/11/30 13:07:11;;;;;;;9.25;4.00;;;;;;;;;;1681661;83;21528;-61
2022/11/30 13:09:42;;;;;;;7.62;4.25;;;;;;;;;;1685776;83;21065;-61
2022/11/30 13:12:10;;;;;;;5.97;4.05;;;;;;;;;;1691610;84;21055;-60
2022/11/30 13:14:37;;;;;;;10.60;4.35;;;;;;;;;;1690995;83;21081;-62
2022/11/30 13:17:05;;;;;;;8.33;3.95;;;;;;;;;;1681914;84;21102;-60
2022/11/30 13:19:50;;;;;;;10.38;4.10;;;;;;;;;;1695442;84;21068;-60
2022/11/30 13:22:23;;;;;;;8.85;4.60;;;;;;;;;;1690304;84;21627;-61
2022/11/30 13:24:51;;;;;;;10.45;4.62;;;;;;;;;;1682531;84;20997;-61
2022/11/30 13:27:31;;;;;;;9.35;4.35;;;;;;;;;;1682025;84;21064;-61
2022/11/30 13:30:15;;;;;;;8.83;4.47;;;;;;;;;;1662910;84;21080;-61
2022/11/30 13:32:41;;;;;;;6.53;3.98;;;;;;;;;;1688033;83;21037;-61
2022/11/30 13:35:26;;;;;;;8.20;4.03;;;;;;;;;;1696098;83;21037;-61
2022/11/30 13:38:06;;;;;;;10.23;4.22;;;;;;;;;;1679247;84;21018;-61
2022/11/30 13:40:32;;;;;;;11.48;5.35;;;;;;;;;;1685289;83;21049;-61
2022/11/30 13:42:59;;;;;;;7.25;4.03;;;;;;;;;;1696586;83;22376;-61
2022/11/30 13:45:26;;;;;;;8.60;3.87;;;;;;;;;;1664739;84;21136;-61
2022/11/30 13:47:53;;;;;;;6.67;3.58;;;;;;;;;;1666415;84;21036;-61
2022/11/30 13:50:27;;;;;;;8.25;4.12;;;;;;;;;;1693238;83;21009;-61
2022/11/30 13:52:58;;;;;;;9.25;4.62;;;;;;;;;;1679829;83;21029;-61
2022/11/30 13:55:36;;;;;;;7.40;4.33;;;;;;;;;;1663969;84;21600;-62
2022/11/30 13:58:04;;;;;;;7.75;4.20;;;;;;;;;;1689526;83;21639;-61
2022/11/30 14:00:32;;;;;;;8.00;4.10;;;;;;;;;;1654828;86;21104;-62
2022/11/30 14:03:18;;;;;;;7.65;4.05;;;;;;;;;;1686773;84;21579;-62
2022/11/30 14:05:55;;;;;;;11.83;4.85;;;;;;;;;;1647356;86;21206;-61
2022/11/30 14:08:23;;;;;;;10.00;4.80;;;;;;;;;;1697464;83;21586;-61
2022/11/30 14:10:50;;;;;;;7.20;4.03;;;;;;;;;;1696055;83;21084;-61
2022/11/30 14:13:20;;;;;;;7.35;4.05;;;;;;;;;;1696442;83;21188;-64
2022/11/30 14:15:48;;;;;;;12.05;4.22;;;;;;;;;;1698260;83;21056;-62
2022/11/30 14:18:22;;;;;;;7.53;3.65;;;;;;;;;;1700022;82;21595;-61
2022/11/30 14:20:54;;;;;;;9.30;3.92;;;;;;;;;;1693649;83;21074;-61
2022/11/30 14:35:18;;;;;;;7.65;4.28;;;;;;;;;;1811530;77;22131;-60
2022/11/30 14:37:46;;;;;;;8.60;4.58;;;;;;;;;;1811013;78;20937;-61
2022/11/30 14:40:13;;;;;;;12.50;5.15;;;;;;;;;;1808831;78;21013;-61
2022/11/30 14:42:41;;;;;;;11.38;6.12;;;;;;;;;;1808665;78;21548;-61
2022/11/30 14:45:13;;;;;;;9.88;5.92;;;;;;;;;;1812401;78;22104;-61
2022/11/30 14:47:39;;;;;;;8.43;5.37;;;;;;;;;;1802405;78;21520;-60
2022/11/30 14:50:06;;;;;;;14.80;6.42;;;;;;;;;;1799513;78;22016;-61
2022/11/30 14:52:53;;;;;;;10.55;5.62;;;;;;;;;;1820155;78;21114;-61
2022/11/30 14:55:21;;;;;;;9.98;5.47;;;;;;;;;;1805919;78;21055;-60
2022/11/30 14:57:52;;;;;;;9.68;5.12;;;;;;;;;;1799813;77;21080;-60
2022/11/30 15:00:20;;;;;;;10.45;5.40;;;;;;;;;;1806646;78;21611;-59
2022/11/30 15:02:47;;;;;;;13.15;6.10;;;;;;;;;;1803070;78;21671;-59
2022/11/30 15:05:14;;;;;;;9.45;5.00;;;;;;;;;;1798223;78;21056;-59
2022/11/30 15:07:40;;;;;;;11.95;5.28;;;;;;;;;;1810068;78;21054;-59
2022/11/30 15:10:07;;;;;;;9.43;5.37;;;;;;;;;;1806680;78;21508;-60
2022/11/30 15:12:33;;;;;;;8.85;4.47;;;;;;;;;;1817440;78;21574;-61
2022/11/30 15:15:01;;;;;;;9.40;4.47;;;;;;;;;;1796078;78;21040;-59
2022/11/30 15:17:27;;;;;;;9.53;4.87;;;;;;;;;;1799730;78;22165;-59
2022/11/30 15:19:53;;;;;;;8.65;4.33;;;;;;;;;;1798534;78;21021;-60
2022/11/30 15:22:21;;;;;;;14.58;5.80;;;;;;;;;;1807412;78;21056;-60
2022/11/30 15:24:47;;;;;;;12.05;5.60;;;;;;;;;;1796536;77;21057;-60
2022/11/30 15:27:13;;;;;;;17.45;7.42;;;;;;;;;;1777182;80;21024;-61
2022/11/30 15:29:41;;;;;;;19.42;8.38;;;;;;;;;;1782714;80;21555;-62
2022/11/30 15:32:10;;;;;;;23.20;8.00;;;;;;;;;;1783276;78;21017;-61
2022/11/30 15:37:33;;;;;;;15.05;7.08;;;;;;;;;;1727884;80;21208;-58
2022/11/30 15:40:01;;;;;;;12.63;6.20;;;;;;;;;;1704521;82;21001;-60
2022/11/30 15:51:20;;;;;;;11.70;4.75;;;;;;;;;;1787165;78;84580;-59
2022/11/30 15:53:48;;;;;;;9.10;4.72;;;;;;;;;;1790639;78;21005;-59
2022/11/30 15:56:22;;;;;;;8.90;4.35;;;;;;;;;;1792452;79;21009;-58
2022/11/30 15:59:05;;;;;;;7.55;4.40;;;;;;;;;;1795790;79;21493;-58
2022/11/30 16:02:00;;;;;;;11.43;5.53;;;;;;;;;;1797206;79;21037;-59
2022/11/30 16:04:20;;;;;;;12.40;5.22;;;;;;;;;;1696548;83;21103;-59
2022/11/30 16:06:46;;;;;;;10.23;4.62;;;;;;;;;;1698207;83;21491;-59
2022/11/30 16:30:47;;;;;;;15.32;8.08;;;;;;;;;;1751360;78;959710;-60
2022/11/30 16:33:20;;;;;;;16.00;7.47;;;;;;;;;;1756433;81;21024;-59
2022/11/30 16:35:49;;;;;;;13.88;7.10;;;;;;;;;;1750165;81;21515;-60
2022/11/30 16:38:16;;;;;;;14.70;7.35;;;;;;;;;;1752851;81;21016;-59
2022/11/30 16:40:42;;;;;;;13.98;6.80;;;;;;;;;;1729959;82;21032;-60
2022/11/30 16:43:09;;;;;;;21.23;7.50;;;;;;;;;;1744544;82;21048;-61
2022/11/30 16:45:35;;;;;;;17.02;7.45;;;;;;;;;;1742046;82;21637;-60
2022/11/30 16:48:02;;;;;;;14.55;6.65;;;;;;;;;;1771035;81;21553;-60
2022/11/30 16:50:30;;;;;;;14.55;7.17;;;;;;;;;;1770445;81;21060;-61
2022/11/30 16:52:56;;;;;;;14.25;6.25;;;;;;;;;;1769733;81;21020;-61
2022/11/30 16:55:22;;;;;;;16.25;6.33;;;;;;;;;;1737794;82;21178;-59
2022/11/30 16:57:48;;;;;;;16.97;7.45;;;;;;;;;;1769045;80;21048;-59
2022/11/30 17:00:17;;;;;;;14.65;6.78;;;;;;;;;;1769874;81;21028;-60
2022/11/30 17:03:01;;;;;;;13.75;7.28;;;;;;;;;;1770746;80;21085;-61
2022/11/30 17:05:28;;;;;;;13.18;5.83;;;;;;;;;;1739266;82;21100;-61
2022/11/30 17:07:54;;;;;;;11.20;5.85;;;;;;;;;;1743827;82;21562;-61
2022/11/30 17:10:20;;;;;;;13.15;6.58;;;;;;;;;;1740776;82;21027;-61
2022/11/30 17:12:46;;;;;;;12.82;6.62;;;;;;;;;;1771097;81;21036;-61
2022/11/30 17:15:14;;;;;;;12.50;5.80;;;;;;;;;;1769437;81;21100;-60
2022/11/30 17:17:40;;;;;;;10.40;5.60;;;;;;;;;;1769136;81;21054;-59
2022/11/30 17:20:07;;;;;;;16.57;7.20;;;;;;;;;;1767842;81;21023;-61
2022/11/30 17:22:36;;;;;;;16.02;6.65;;;;;;;;;;1734419;82;21012;-61
2022/11/30 17:25:01;;;;;;;11.97;5.50;;;;;;;;;;1741808;82;20996;-61
2022/11/30 17:27:27;;;;;;;12.20;4.22;;;;;;;;;;1745536;81;20965;-60
2022/11/30 17:29:52;;;;;;;13.65;6.53;;;;;;;;;;1722500;82;21048;-61
2022/11/30 17:32:18;;;;;;;13.98;6.45;;;;;;;;;;1756017;81;21495;-61
2022/11/30 17:34:46;;;;;;;11.10;5.90;;;;;;;;;;1738710;82;20988;-59
2022/11/30 17:37:12;;;;;;;15.55;5.70;;;;;;;;;;1743793;82;21012;-61
2022/11/30 17:39:39;;;;;;;15.18;6.37;;;;;;;;;;1737568;82;21025;-59
2022/11/30 17:42:05;;;;;;;13.10;6.03;;;;;;;;;;1738433;81;21404;-59
2022/11/30 17:44:32;;;;;;;12.60;6.08;;;;;;;;;;1729309;81;21044;-59
2022/11/30 17:46:59;;;;;;;9.45;5.17;;;;;;;;;;1743652;81;21070;-61
2022/11/30 17:49:25;;;;;;;13.50;5.47;;;;;;;;;;1739360;82;21040;-61
2022/11/30 17:51:51;;;;;;;12.25;6.33;;;;;;;;;;1744254;82;21055;-61
2022/11/30 17:54:18;;;;;;;10.82;5.47;;;;;;;;;;1743930;82;21029;-61
2022/11/30 17:56:44;;;;;;;11.95;5.80;;;;;;;;;;1756032;82;21083;-61
2022/11/30 17:59:10;;;;;;;10.50;5.15;;;;;;;;;;1739912;82;21052;-61
2022/11/30 18:01:37;;;;;;;12.37;5.20;;;;;;;;;;1740546;80;21515;-60
2022/11/30 18:04:04;;;;;;;9.65;4.75;;;;;;;;;;1747717;80;21208;-61
2022/11/30 18:06:30;;;;;;;11.57;5.97;;;;;;;;;;1744096;82;21557;-61
2022/11/30 18:08:56;;;;;;;12.98;5.05;;;;;;;;;;1744451;82;21079;-61
2022/11/30 18:11:23;;;;;;;9.83;4.97;;;;;;;;;;1740325;82;21574;-61
2022/11/30 18:13:50;;;;;;;10.63;5.90;;;;;;;;;;1735231;82;21084;-61
2022/11/30 18:16:24;;;;;;;10.23;5.85;;;;;;;;;;1734124;80;21552;-61
2022/11/30 18:18:50;;;;;;;10.23;5.47;;;;;;;;;;1748400;80;21079;-61
2022/11/30 18:21:19;;;;;;;11.12;5.90;;;;;;;;;;1744540;82;21052;-61
2022/11/30 18:23:45;;;;;;;13.18;7.05;;;;;;;;;;1738950;82;20969;-62
2022/11/30 18:26:12;;;;;;;9.83;4.58;;;;;;;;;;1740030;82;21044;-62
2022/11/30 18:28:39;;;;;;;10.72;5.42;;;;;;;;;;1724876;82;21028;-62
2022/11/30 18:31:05;;;;;;;10.00;5.03;;;;;;;;;;1742992;82;21044;-62
2022/11/30 18:33:32;;;;;;;11.53;5.50;;;;;;;;;;1744860;81;21035;-62
2022/11/30 18:35:58;;;;;;;13.25;5.67;;;;;;;;;;1734746;82;21056;-62
2022/11/30 18:38:26;;;;;;;11.00;5.58;;;;;;;;;;1742979;82;21013;-62
2022/11/30 18:40:52;;;;;;;12.15;6.17;;;;;;;;;;1752616;81;21017;-61
2022/11/30 18:43:19;;;;;;;13.25;5.20;;;;;;;;;;1730123;81;21525;-61
2022/11/30 18:45:47;;;;;;;13.98;5.83;;;;;;;;;;1707547;82;21099;-61
2022/11/30 18:48:14;;;;;;;13.25;6.08;;;;;;;;;;1735915;81;21054;-60
2022/11/30 18:50:40;;;;;;;9.63;5.00;;;;;;;;;;1752204;80;21056;-60
2022/11/30 18:53:06;;;;;;;12.82;5.58;;;;;;;;;;1762789;80;21040;-61
2022/11/30 18:55:34;;;;;;;11.63;5.62;;;;;;;;;;1753534;81;21016;-60
2022/11/30 18:58:01;;;;;;;9.33;5.15;;;;;;;;;;1753074;82;21063;-60
2022/11/30 19:00:27;;;;;;;11.08;5.80;;;;;;;;;;1753877;81;21477;-60
2022/11/30 19:02:54;;;;;;;13.58;5.87;;;;;;;;;;1761303;80;21298;-60
2022/11/30 19:05:33;;;;;;;13.90;6.10;;;;;;;;;;1766749;80;21041;-60
2022/11/30 19:08:02;;;;;;;12.82;7.08;;;;;;;;;;1718336;83;21632;-61
2022/11/30 19:10:33;;;;;;;9.70;5.87;;;;;;;;;;1771100;80;21142;-60
2022/11/30 19:13:00;;;;;;;11.85;5.90;;;;;;;;;;1765472;80;21072;-61
2022/11/30 19:15:26;;;;;;;13.03;6.50;;;;;;;;;;1763919;81;21035;-61
2022/11/30 19:17:56;;;;;;;12.55;7.22;;;;;;;;;;1764990;79;21069;-61
2022/11/30 19:20:22;;;;;;;13.05;6.85;;;;;;;;;;1723806;83;21531;-61
2022/11/30 19:22:51;;;;;;;13.45;6.75;;;;;;;;;;1736617;81;21028;-62
2022/11/30 19:25:16;;;;;;;12.50;5.85;;;;;;;;;;1728675;82;21096;-60
2022/11/30 19:27:42;;;;;;;12.07;7.22;;;;;;;;;;1732834;82;21070;-61
2022/11/30 19:30:10;;;;;;;11.05;6.33;;;;;;;;;;1740650;81;21052;-60
2022/11/30 19:32:37;;;;;;;11.97;6.40;;;;;;;;;;1738864;82;21029;-61
2022/11/30 19:35:04;;;;;;;9.23;4.83;;;;;;;;;;1737722;82;21496;-61
2022/11/30 19:37:30;;;;;;;10.15;4.37;;;;;;;;;;1744026;82;21036;-59
2022/11/30 19:39:57;;;;;;;8.20;6.30;;;;;;;;;;1734006;80;21037;-61
2022/11/30 19:53:21;;;;;;;14.18;4.87;;;;;;;;;;1795153;78;28444;-61
2022/11/30 19:55:47;;;;;;;11.00;4.80;;;;;;;;;;1782525;78;21021;-62
2022/11/30 19:58:13;;;;;;;9.28;4.62;;;;;;;;;;1796096;80;21491;-61
2022/11/30 20:00:39;;;;;;;12.28;5.45;;;;;;;;;;1785085;78;21049;-60
2022/11/30 20:03:08;;;;;;;16.02;5.20;;;;;;;;;;1773651;78;21071;-61
2022/11/30 20:05:35;;;;;;;8.45;5.47;;;;;;;;;;1776233;79;21550;-62
2022/11/30 20:08:02;;;;;;;12.03;6.10;;;;;;;;;;1773911;78;21035;-61
2022/11/30 20:10:28;;;;;;;12.95;5.65;;;;;;;;;;1768939;78;21063;-64
2022/11/30 20:12:54;;;;;;;11.03;6.00;;;;;;;;;;1776276;79;21502;-62
2022/11/30 20:15:20;;;;;;;14.65;6.30;;;;;;;;;;1777310;78;21040;-61
2022/11/30 20:17:46;;;;;;;16.05;7.30;;;;;;;;;;1778957;78;20990;-63
2022/11/30 20:20:12;;;;;;;14.65;6.47;;;;;;;;;;1787976;80;21010;-62
2022/11/30 20:22:39;;;;;;;14.45;6.62;;;;;;;;;;1786096;79;21083;-62
2022/11/30 20:25:05;;;;;;;16.73;7.12;;;;;;;;;;1760481;78;21523;-61
2022/11/30 20:27:33;;;;;;;15.72;6.92;;;;;;;;;;1771960;80;21022;-62
2022/11/30 20:29:59;;;;;;;11.63;5.37;;;;;;;;;;1793810;80;21043;-61
2022/11/30 20:32:26;;;;;;;10.93;5.25;;;;;;;;;;1784747;80;21056;-62
2022/11/30 20:34:53;;;;;;;9.40;5.17;;;;;;;;;;1763395;80;21561;-61
2022/11/30 20:37:19;;;;;;;10.50;4.90;;;;;;;;;;1792906;80;21094;-60
2022/11/30 20:39:46;;;;;;;9.38;4.80;;;;;;;;;;1753696;80;21000;-61